sensor_id;sensor_type;location;lat;lon;timestamp;temperature;humidity
36384;DHT22;22418;51.210;6.976;2023-08-24T00:01:43;18.90;99.90
36384;DHT22;22418;51.210;6.976;2023-08-24T00:04:13;18.90;99.90
36384;DHT22;22418;51.210;6.976;2023-08-24T00:06:44;18.80;99.90
36384;DHT22;22418;51.210;6.976;2023-08-24T00:09:14;18.80;99.90
36384;DHT22;22418;51.210;6.976;2023-08-24T00:11:45;18.70;99.90
36384;DHT22;22418;51.210;6.976;2023-08-24T00:14:16;18.70;99.90
36384;DHT22;22418;51.210;6.976;2023-08-24T00:16:46;18.70;99.90
36384;DHT22;22418;51.210;6.976;2023-08-24T00:19:16;18.70;99.90
36384;DHT22;22418;51.210;6.976;2023-08-24T00:21:47;18.70;99.90
36384;DHT22;22418;51.210;6.976;2023-08-24T00:24:18;18.70;99.90
36384;DHT22;22418;51.210;6.976;2023-08-24T00:26:48;18.70;99.90
36384;DHT22;22418;51.210;6.976;2023-08-24T00:29:19;18.70;99.90
36384;DHT22;22418;51.210;6.976;2023-08-24T00:31:49;18.70;99.90
36384;DHT22;22418;51.210;6.976;2023-08-24T00:34:19;18.70;99.90
36384;DHT22;22418;51.210;6.976;2023-08-24T00:36:50;18.70;99.90
36384;DHT22;22418;51.210;6.976;2023-08-24T00:39:20;18.70;99.90
36384;DHT22;22418;51.210;6.976;2023-08-24T00:41:51;18.70;99.90
36384;DHT22;22418;51.210;6.976;2023-08-24T00:44:21;18.70;99.90
36384;DHT22;22418;51.210;6.976;2023-08-24T00:46:52;18.70;99.90
36384;DHT22;22418;51.210;6.976;2023-08-24T00:49:22;18.70;99.90
36384;DHT22;22418;51.210;6.976;2023-08-24T00:51:53;18.70;99.90
36384;DHT22;22418;51.210;6.976;2023-08-24T00:54:25;18.80;99.90
36384;DHT22;22418;51.210;6.976;2023-08-24T00:56:55;18.90;99.90
36384;DHT22;22418;51.210;6.976;2023-08-24T00:59:26;18.90;99.90
36384;DHT22;22418;51.210;6.976;2023-08-24T01:01:56;18.90;99.90
36384;DHT22;22418;51.210;6.976;2023-08-24T01:04:29;18.90;99.90
36384;DHT22;22418;51.210;6.976;2023-08-24T01:06:59;18.90;99.90
36384;DHT22;22418;51.210;6.976;2023-08-24T01:09:29;18.90;99.90
36384;DHT22;22418;51.210;6.976;2023-08-24T01:17:14;18.80;99.90
36384;DHT22;22418;51.210;6.976;2023-08-24T01:19:46;18.80;99.90
36384;DHT22;22418;51.210;6.976;2023-08-24T01:24:53;18.60;99.90
36384;DHT22;22418;51.210;6.976;2023-08-24T01:27:23;18.50;99.90
36384;DHT22;22418;51.210;6.976;2023-08-24T01:29:55;18.40;99.90
36384;DHT22;22418;51.210;6.976;2023-08-24T01:32:27;18.50;99.90
36384;DHT22;22418;51.210;6.976;2023-08-24T01:35:01;18.60;99.90
36384;DHT22;22418;51.210;6.976;2023-08-24T01:37:32;18.70;99.90
36384;DHT22;22418;51.210;6.976;2023-08-24T01:40:10;18.80;99.90
36384;DHT22;22418;51.210;6.976;2023-08-24T01:42:55;18.80;99.90
36384;DHT22;22418;51.210;6.976;2023-08-24T01:45:27;18.70;99.90
36384;DHT22;22418;51.210;6.976;2023-08-24T01:48:00;18.70;99.90
36384;DHT22;22418;51.210;6.976;2023-08-24T01:50:31;18.40;99.90
36384;DHT22;22418;51.210;6.976;2023-08-24T01:53:03;18.10;99.90
36384;DHT22;22418;51.210;6.976;2023-08-24T01:55:33;18.10;99.90
36384;DHT22;22418;51.210;6.976;2023-08-24T01:58:04;18.10;99.90
36384;DHT22;22418;51.210;6.976;2023-08-24T02:00:34;18.20;99.90
36384;DHT22;22418;51.210;6.976;2023-08-24T02:03:05;18.40;99.90
36384;DHT22;22418;51.210;6.976;2023-08-24T02:05:35;18.40;99.90
36384;DHT22;22418;51.210;6.976;2023-08-24T02:08:06;18.50;99.90
36384;DHT22;22418;51.210;6.976;2023-08-24T02:10:36;18.30;99.90
36384;DHT22;22418;51.210;6.976;2023-08-24T02:13:06;18.30;99.90
36384;DHT22;22418;51.210;6.976;2023-08-24T02:15:37;18.40;99.90
36384;DHT22;22418;51.210;6.976;2023-08-24T02:18:08;18.40;99.90
36384;DHT22;22418;51.210;6.976;2023-08-24T02:20:39;18.40;99.90
36384;DHT22;22418;51.210;6.976;2023-08-24T02:23:09;18.30;99.90
36384;DHT22;22418;51.210;6.976;2023-08-24T02:25:43;18.30;99.90
36384;DHT22;22418;51.210;6.976;2023-08-24T02:28:14;18.50;99.90
36384;DHT22;22418;51.210;6.976;2023-08-24T02:30:44;18.50;99.90
36384;DHT22;22418;51.210;6.976;2023-08-24T02:33:14;18.50;99.90
36384;DHT22;22418;51.210;6.976;2023-08-24T02:35:47;18.50;99.90
36384;DHT22;22418;51.210;6.976;2023-08-24T02:38:17;18.30;99.90
36384;DHT22;22418;51.210;6.976;2023-08-24T02:40:48;18.30;99.90
36384;DHT22;22418;51.210;6.976;2023-08-24T02:43:18;18.30;99.90
36384;DHT22;22418;51.210;6.976;2023-08-24T02:45:49;18.20;99.90
36384;DHT22;22418;51.210;6.976;2023-08-24T02:48:19;18.10;99.90
36384;DHT22;22418;51.210;6.976;2023-08-24T02:50:50;18.10;99.90
36384;DHT22;22418;51.210;6.976;2023-08-24T02:53:20;18.30;99.90
36384;DHT22;22418;51.210;6.976;2023-08-24T02:55:51;18.30;99.90
36384;DHT22;22418;51.210;6.976;2023-08-24T02:58:21;18.40;99.90
36384;DHT22;22418;51.210;6.976;2023-08-24T03:00:52;18.40;99.90
36384;DHT22;22418;51.210;6.976;2023-08-24T03:03:23;18.40;99.90
36384;DHT22;22418;51.210;6.976;2023-08-24T03:05:54;18.40;99.90
36384;DHT22;22418;51.210;6.976;2023-08-24T03:08:25;18.40;99.90
36384;DHT22;22418;51.210;6.976;2023-08-24T03:10:56;18.40;99.90
36384;DHT22;22418;51.210;6.976;2023-08-24T03:13:27;18.30;99.90
36384;DHT22;22418;51.210;6.976;2023-08-24T03:15:59;18.30;99.90
36384;DHT22;22418;51.210;6.976;2023-08-24T03:18:32;18.20;99.90
36384;DHT22;22418;51.210;6.976;2023-08-24T03:21:03;18.30;99.90
36384;DHT22;22418;51.210;6.976;2023-08-24T03:23:33;18.20;99.90
36384;DHT22;22418;51.210;6.976;2023-08-24T03:26:04;18.30;99.90
36384;DHT22;22418;51.210;6.976;2023-08-24T03:28:35;18.20;99.90
36384;DHT22;22418;51.210;6.976;2023-08-24T03:31:06;18.30;99.90
36384;DHT22;22418;51.210;6.976;2023-08-24T03:33:36;18.40;99.90
36384;DHT22;22418;51.210;6.976;2023-08-24T03:36:07;18.40;99.90
36384;DHT22;22418;51.210;6.976;2023-08-24T03:38:37;18.40;99.90
36384;DHT22;22418;51.210;6.976;2023-08-24T03:41:08;18.50;99.90
36384;DHT22;22418;51.210;6.976;2023-08-24T03:43:38;18.60;99.90
36384;DHT22;22418;51.210;6.976;2023-08-24T03:46:08;18.60;99.90
36384;DHT22;22418;51.210;6.976;2023-08-24T03:48:39;18.50;99.90
36384;DHT22;22418;51.210;6.976;2023-08-24T03:51:10;18.60;99.90
36384;DHT22;22418;51.210;6.976;2023-08-24T03:53:44;18.60;99.90
36384;DHT22;22418;51.210;6.976;2023-08-24T03:56:14;18.60;99.90
36384;DHT22;22418;51.210;6.976;2023-08-24T03:58:44;18.50;99.90
36384;DHT22;22418;51.210;6.976;2023-08-24T04:01:15;18.50;99.90
36384;DHT22;22418;51.210;6.976;2023-08-24T04:03:45;18.60;99.90
36384;DHT22;22418;51.210;6.976;2023-08-24T04:06:17;18.60;99.90
36384;DHT22;22418;51.210;6.976;2023-08-24T04:08:48;18.60;99.90
36384;DHT22;22418;51.210;6.976;2023-08-24T04:11:18;18.50;99.90
36384;DHT22;22418;51.210;6.976;2023-08-24T04:13:49;18.50;99.90
36384;DHT22;22418;51.210;6.976;2023-08-24T04:16:19;18.50;99.90
36384;DHT22;22418;51.210;6.976;2023-08-24T04:18:50;18.40;99.90
36384;DHT22;22418;51.210;6.976;2023-08-24T04:21:21;18.40;99.90
36384;DHT22;22418;51.210;6.976;2023-08-24T04:23:51;18.40;99.90
36384;DHT22;22418;51.210;6.976;2023-08-24T04:26:22;18.60;99.90
36384;DHT22;22418;51.210;6.976;2023-08-24T04:28:52;18.60;99.90
36384;DHT22;22418;51.210;6.976;2023-08-24T04:31:23;18.70;99.90
36384;DHT22;22418;51.210;6.976;2023-08-24T04:33:53;18.70;99.90
36384;DHT22;22418;51.210;6.976;2023-08-24T04:36:24;18.80;99.90
36384;DHT22;22418;51.210;6.976;2023-08-24T04:38:54;18.80;99.90
36384;DHT22;22418;51.210;6.976;2023-08-24T04:41:25;18.80;99.90
36384;DHT22;22418;51.210;6.976;2023-08-24T04:43:55;18.80;99.90
36384;DHT22;22418;51.210;6.976;2023-08-24T04:46:26;18.60;99.90
36384;DHT22;22418;51.210;6.976;2023-08-24T04:48:56;18.50;99.90
36384;DHT22;22418;51.210;6.976;2023-08-24T04:51:27;18.40;99.90
36384;DHT22;22418;51.210;6.976;2023-08-24T04:53:58;18.50;99.90
36384;DHT22;22418;51.210;6.976;2023-08-24T04:56:28;18.50;99.90
36384;DHT22;22418;51.210;6.976;2023-08-24T04:58:59;18.70;99.90
36384;DHT22;22418;51.210;6.976;2023-08-24T05:01:30;18.80;99.90
36384;DHT22;22418;51.210;6.976;2023-08-24T05:04:01;18.90;99.90
36384;DHT22;22418;51.210;6.976;2023-08-24T05:06:32;19.00;99.90
36384;DHT22;22418;51.210;6.976;2023-08-24T05:09:02;19.10;99.90
36384;DHT22;22418;51.210;6.976;2023-08-24T05:11:33;19.20;99.90
36384;DHT22;22418;51.210;6.976;2023-08-24T05:14:03;19.20;99.90
36384;DHT22;22418;51.210;6.976;2023-08-24T05:16:34;19.20;99.90
36384;DHT22;22418;51.210;6.976;2023-08-24T05:19:05;19.30;99.90
36384;DHT22;22418;51.210;6.976;2023-08-24T05:21:35;19.40;99.90
36384;DHT22;22418;51.210;6.976;2023-08-24T05:24:06;19.40;99.90
36384;DHT22;22418;51.210;6.976;2023-08-24T05:26:36;19.50;99.90
36384;DHT22;22418;51.210;6.976;2023-08-24T05:29:07;19.50;99.90
36384;DHT22;22418;51.210;6.976;2023-08-24T05:31:37;19.50;99.90
36384;DHT22;22418;51.210;6.976;2023-08-24T05:34:08;19.60;99.90
36384;DHT22;22418;51.210;6.976;2023-08-24T05:36:38;19.70;99.90
36384;DHT22;22418;51.210;6.976;2023-08-24T05:39:09;19.80;99.90
36384;DHT22;22418;51.210;6.976;2023-08-24T05:41:41;19.90;99.90
36384;DHT22;22418;51.210;6.976;2023-08-24T05:44:11;19.90;99.90
36384;DHT22;22418;51.210;6.976;2023-08-24T05:46:42;19.90;99.90
36384;DHT22;22418;51.210;6.976;2023-08-24T05:49:12;19.90;99.90
36384;DHT22;22418;51.210;6.976;2023-08-24T05:51:43;20.00;99.90
36384;DHT22;22418;51.210;6.976;2023-08-24T05:54:14;20.00;99.90
36384;DHT22;22418;51.210;6.976;2023-08-24T05:56:47;20.00;99.90
36384;DHT22;22418;51.210;6.976;2023-08-24T05:59:18;20.10;99.90
36384;DHT22;22418;51.210;6.976;2023-08-24T06:01:48;20.20;99.90
36384;DHT22;22418;51.210;6.976;2023-08-24T06:04:19;20.20;99.90
36384;DHT22;22418;51.210;6.976;2023-08-24T06:06:49;20.30;99.90
36384;DHT22;22418;51.210;6.976;2023-08-24T06:09:20;20.40;99.90
36384;DHT22;22418;51.210;6.976;2023-08-24T06:11:50;20.40;99.90
36384;DHT22;22418;51.210;6.976;2023-08-24T06:14:21;20.50;99.90
36384;DHT22;22418;51.210;6.976;2023-08-24T06:16:51;20.40;99.90
36384;DHT22;22418;51.210;6.976;2023-08-24T06:19:23;20.50;99.90
36384;DHT22;22418;51.210;6.976;2023-08-24T06:21:54;20.60;99.90
36384;DHT22;22418;51.210;6.976;2023-08-24T06:24:24;20.60;99.90
36384;DHT22;22418;51.210;6.976;2023-08-24T06:26:55;20.60;99.90
36384;DHT22;22418;51.210;6.976;2023-08-24T06:29:27;20.80;99.90
36384;DHT22;22418;51.210;6.976;2023-08-24T06:31:57;21.00;99.90
36384;DHT22;22418;51.210;6.976;2023-08-24T06:34:27;21.10;99.90
36384;DHT22;22418;51.210;6.976;2023-08-24T06:37:00;21.20;99.90
36384;DHT22;22418;51.210;6.976;2023-08-24T06:39:31;21.20;99.90
36384;DHT22;22418;51.210;6.976;2023-08-24T06:42:01;21.30;99.90
36384;DHT22;22418;51.210;6.976;2023-08-24T06:44:33;21.30;99.90
36384;DHT22;22418;51.210;6.976;2023-08-24T06:47:03;21.20;99.90
36384;DHT22;22418;51.210;6.976;2023-08-24T06:49:34;21.20;99.90
36384;DHT22;22418;51.210;6.976;2023-08-24T06:52:04;21.40;99.90
36384;DHT22;22418;51.210;6.976;2023-08-24T06:54:35;21.70;99.90
36384;DHT22;22418;51.210;6.976;2023-08-24T06:57:05;22.20;99.90
36384;DHT22;22418;51.210;6.976;2023-08-24T06:59:35;22.60;99.90
36384;DHT22;22418;51.210;6.976;2023-08-24T07:02:06;23.00;99.90
36384;DHT22;22418;51.210;6.976;2023-08-24T07:04:36;23.40;99.90
36384;DHT22;22418;51.210;6.976;2023-08-24T07:07:09;23.80;99.90
36384;DHT22;22418;51.210;6.976;2023-08-24T07:09:40;24.20;99.90
36384;DHT22;22418;51.210;6.976;2023-08-24T07:12:13;24.70;99.90
36384;DHT22;22418;51.210;6.976;2023-08-24T07:14:43;25.10;99.90
36384;DHT22;22418;51.210;6.976;2023-08-24T07:17:14;25.30;99.90
36384;DHT22;22418;51.210;6.976;2023-08-24T07:19:44;25.20;99.90
36384;DHT22;22418;51.210;6.976;2023-08-24T07:22:15;25.50;99.90
36384;DHT22;22418;51.210;6.976;2023-08-24T07:24:45;25.50;99.90
36384;DHT22;22418;51.210;6.976;2023-08-24T07:27:16;25.40;99.90
36384;DHT22;22418;51.210;6.976;2023-08-24T07:29:47;25.50;99.90
36384;DHT22;22418;51.210;6.976;2023-08-24T07:32:17;25.70;99.90
36384;DHT22;22418;51.210;6.976;2023-08-24T07:34:48;25.90;99.90
36384;DHT22;22418;51.210;6.976;2023-08-24T07:37:18;25.90;99.90
36384;DHT22;22418;51.210;6.976;2023-08-24T07:39:49;26.10;99.90
36384;DHT22;22418;51.210;6.976;2023-08-24T07:42:20;26.10;99.90
36384;DHT22;22418;51.210;6.976;2023-08-24T07:44:51;26.00;99.90
36384;DHT22;22418;51.210;6.976;2023-08-24T07:47:22;26.10;99.90
36384;DHT22;22418;51.210;6.976;2023-08-24T07:49:52;26.20;99.90
36384;DHT22;22418;51.210;6.976;2023-08-24T07:52:22;26.30;99.90
36384;DHT22;22418;51.210;6.976;2023-08-24T07:54:57;26.50;99.90
36384;DHT22;22418;51.210;6.976;2023-08-24T07:57:30;26.40;99.90
36384;DHT22;22418;51.210;6.976;2023-08-24T08:00:02;26.40;99.90
36384;DHT22;22418;51.210;6.976;2023-08-24T08:02:32;26.20;99.90
36384;DHT22;22418;51.210;6.976;2023-08-24T08:05:03;26.20;99.90
36384;DHT22;22418;51.210;6.976;2023-08-24T08:07:34;26.30;99.90
36384;DHT22;22418;51.210;6.976;2023-08-24T08:10:04;26.20;99.90
36384;DHT22;22418;51.210;6.976;2023-08-24T08:12:35;26.30;99.90
36384;DHT22;22418;51.210;6.976;2023-08-24T08:15:06;26.30;99.90
36384;DHT22;22418;51.210;6.976;2023-08-24T08:17:36;26.50;99.90
36384;DHT22;22418;51.210;6.976;2023-08-24T08:20:07;26.50;99.90
36384;DHT22;22418;51.210;6.976;2023-08-24T08:22:38;26.60;99.90
36384;DHT22;22418;51.210;6.976;2023-08-24T08:25:08;26.60;99.90
36384;DHT22;22418;51.210;6.976;2023-08-24T08:27:39;26.60;99.90
36384;DHT22;22418;51.210;6.976;2023-08-24T08:30:09;26.70;99.90
36384;DHT22;22418;51.210;6.976;2023-08-24T08:32:40;26.90;99.90
36384;DHT22;22418;51.210;6.976;2023-08-24T08:35:11;26.90;99.90
36384;DHT22;22418;51.210;6.976;2023-08-24T08:37:41;26.90;99.90
36384;DHT22;22418;51.210;6.976;2023-08-24T08:40:12;27.00;99.90
36384;DHT22;22418;51.210;6.976;2023-08-24T08:42:42;27.10;99.90
36384;DHT22;22418;51.210;6.976;2023-08-24T08:45:13;27.20;99.90
36384;DHT22;22418;51.210;6.976;2023-08-24T08:47:43;27.20;99.90
36384;DHT22;22418;51.210;6.976;2023-08-24T08:50:14;27.10;99.90
36384;DHT22;22418;51.210;6.976;2023-08-24T08:52:44;27.00;99.90
36384;DHT22;22418;51.210;6.976;2023-08-24T08:55:15;27.00;99.90
36384;DHT22;22418;51.210;6.976;2023-08-24T08:57:47;26.90;99.90
36384;DHT22;22418;51.210;6.976;2023-08-24T09:00:18;26.80;99.90
36384;DHT22;22418;51.210;6.976;2023-08-24T09:02:49;26.80;99.90
36384;DHT22;22418;51.210;6.976;2023-08-24T09:05:21;26.70;99.90
36384;DHT22;22418;51.210;6.976;2023-08-24T09:07:53;26.80;99.90
36384;DHT22;22418;51.210;6.976;2023-08-24T09:10:24;26.80;99.90
36384;DHT22;22418;51.210;6.976;2023-08-24T09:12:55;26.90;99.90
36384;DHT22;22418;51.210;6.976;2023-08-24T09:15:26;27.00;99.90
36384;DHT22;22418;51.210;6.976;2023-08-24T09:17:59;27.00;99.90
36384;DHT22;22418;51.210;6.976;2023-08-24T09:20:30;26.90;99.90
36384;DHT22;22418;51.210;6.976;2023-08-24T09:23:01;26.50;99.90
36384;DHT22;22418;51.210;6.976;2023-08-24T09:25:31;26.30;99.90
36384;DHT22;22418;51.210;6.976;2023-08-24T09:28:02;26.00;99.90
36384;DHT22;22418;51.210;6.976;2023-08-24T09:30:38;26.20;99.90
36384;DHT22;22418;51.210;6.976;2023-08-24T09:33:09;26.30;99.90
36384;DHT22;22418;51.210;6.976;2023-08-24T09:35:40;26.40;99.90
36384;DHT22;22418;51.210;6.976;2023-08-24T09:38:17;26.30;99.90
36384;DHT22;22418;51.210;6.976;2023-08-24T09:40:51;26.30;99.90
36384;DHT22;22418;51.210;6.976;2023-08-24T09:43:23;26.30;99.90
36384;DHT22;22418;51.210;6.976;2023-08-24T09:45:54;26.20;99.90
36384;DHT22;22418;51.210;6.976;2023-08-24T09:48:24;26.10;99.90
36384;DHT22;22418;51.210;6.976;2023-08-24T09:50:55;26.00;99.90
36384;DHT22;22418;51.210;6.976;2023-08-24T09:53:26;26.00;99.90
36384;DHT22;22418;51.210;6.976;2023-08-24T09:55:58;26.20;99.90
36384;DHT22;22418;51.210;6.976;2023-08-24T09:58:29;26.10;99.90
36384;DHT22;22418;51.210;6.976;2023-08-24T10:01:01;26.10;99.90
36384;DHT22;22418;51.210;6.976;2023-08-24T10:03:32;25.90;99.90
36384;DHT22;22418;51.210;6.976;2023-08-24T10:06:02;26.10;99.90
36384;DHT22;22418;51.210;6.976;2023-08-24T10:08:34;26.30;99.90
36384;DHT22;22418;51.210;6.976;2023-08-24T10:11:06;26.50;99.90
36384;DHT22;22418;51.210;6.976;2023-08-24T10:16:37;26.70;99.90
36384;DHT22;22418;51.210;6.976;2023-08-24T10:19:08;26.40;99.90
36384;DHT22;22418;51.210;6.976;2023-08-24T10:21:38;26.30;99.90
36384;DHT22;22418;51.210;6.976;2023-08-24T10:24:09;26.30;99.90
36384;DHT22;22418;51.210;6.976;2023-08-24T10:26:42;26.30;99.90
36384;DHT22;22418;51.210;6.976;2023-08-24T10:29:12;26.40;99.90
36384;DHT22;22418;51.210;6.976;2023-08-24T10:31:43;26.50;99.90
36384;DHT22;22418;51.210;6.976;2023-08-24T10:34:14;26.70;99.90
36384;DHT22;22418;51.210;6.976;2023-08-24T10:36:47;26.60;99.90
36384;DHT22;22418;51.210;6.976;2023-08-24T10:39:18;26.40;99.90
36384;DHT22;22418;51.210;6.976;2023-08-24T10:41:51;26.20;99.90
36384;DHT22;22418;51.210;6.976;2023-08-24T10:44:24;26.30;99.90
36384;DHT22;22418;51.210;6.976;2023-08-24T10:49:45;26.70;99.90
36384;DHT22;22418;51.210;6.976;2023-08-24T10:55:00;26.70;99.90
36384;DHT22;22418;51.210;6.976;2023-08-24T10:57:38;26.70;99.90
36384;DHT22;22418;51.210;6.976;2023-08-24T11:00:09;26.60;99.90
36384;DHT22;22418;51.210;6.976;2023-08-24T11:02:50;26.80;99.90
36384;DHT22;22418;51.210;6.976;2023-08-24T11:05:24;26.90;99.90
36384;DHT22;22418;51.210;6.976;2023-08-24T11:07:58;26.90;99.90
36384;DHT22;22418;51.210;6.976;2023-08-24T11:13:13;26.80;99.90
36384;DHT22;22418;51.210;6.976;2023-08-24T11:15:47;26.80;99.90
36384;DHT22;22418;51.210;6.976;2023-08-24T11:18:25;26.90;99.90
36384;DHT22;22418;51.210;6.976;2023-08-24T11:21:00;27.20;99.90
36384;DHT22;22418;51.210;6.976;2023-08-24T11:23:34;27.10;99.90
36384;DHT22;22418;51.210;6.976;2023-08-24T11:26:05;27.00;99.90
36384;DHT22;22418;51.210;6.976;2023-08-24T11:28:37;27.10;99.90
36384;DHT22;22418;51.210;6.976;2023-08-24T11:31:08;27.10;99.90
36384;DHT22;22418;51.210;6.976;2023-08-24T11:33:39;27.10;99.90
36384;DHT22;22418;51.210;6.976;2023-08-24T11:36:09;27.20;99.90
36384;DHT22;22418;51.210;6.976;2023-08-24T11:38:41;27.10;99.90
36384;DHT22;22418;51.210;6.976;2023-08-24T11:41:12;27.10;99.90
36384;DHT22;22418;51.210;6.976;2023-08-24T11:43:43;27.10;99.90
36384;DHT22;22418;51.210;6.976;2023-08-24T11:46:17;27.00;99.90
36384;DHT22;22418;51.210;6.976;2023-08-24T11:48:48;27.00;99.90
36384;DHT22;22418;51.210;6.976;2023-08-24T11:51:19;26.90;99.90
36384;DHT22;22418;51.210;6.976;2023-08-24T11:53:49;26.90;99.90
36384;DHT22;22418;51.210;6.976;2023-08-24T11:56:20;26.90;99.90
36384;DHT22;22418;51.210;6.976;2023-08-24T11:58:50;27.00;99.90
36384;DHT22;22418;51.210;6.976;2023-08-24T12:01:21;27.10;99.90
36384;DHT22;22418;51.210;6.976;2023-08-24T12:03:51;27.10;99.90
36384;DHT22;22418;51.210;6.976;2023-08-24T12:06:26;27.20;99.90
36384;DHT22;22418;51.210;6.976;2023-08-24T12:08:57;27.30;99.90
36384;DHT22;22418;51.210;6.976;2023-08-24T12:11:27;27.30;99.90
36384;DHT22;22418;51.210;6.976;2023-08-24T12:13:58;27.40;99.90
36384;DHT22;22418;51.210;6.976;2023-08-24T12:16:30;27.40;99.90
36384;DHT22;22418;51.210;6.976;2023-08-24T12:19:01;27.40;99.90
36384;DHT22;22418;51.210;6.976;2023-08-24T12:21:34;27.50;99.90
36384;DHT22;22418;51.210;6.976;2023-08-24T12:24:05;27.40;99.90
36384;DHT22;22418;51.210;6.976;2023-08-24T12:26:36;27.30;99.90
36384;DHT22;22418;51.210;6.976;2023-08-24T12:29:07;27.30;99.90
36384;DHT22;22418;51.210;6.976;2023-08-24T12:31:40;27.20;99.90
36384;DHT22;22418;51.210;6.976;2023-08-24T12:34:13;27.00;99.90
36384;DHT22;22418;51.210;6.976;2023-08-24T12:36:44;26.70;99.90
36384;DHT22;22418;51.210;6.976;2023-08-24T12:39:15;26.50;99.90
36384;DHT22;22418;51.210;6.976;2023-08-24T12:41:46;26.30;99.90
36384;DHT22;22418;51.210;6.976;2023-08-24T12:44:16;26.00;99.90
36384;DHT22;22418;51.210;6.976;2023-08-24T12:46:47;25.80;99.90
36384;DHT22;22418;51.210;6.976;2023-08-24T12:49:17;25.70;99.90
36384;DHT22;22418;51.210;6.976;2023-08-24T12:51:48;25.60;99.90
36384;DHT22;22418;51.210;6.976;2023-08-24T12:54:18;25.50;99.90
36384;DHT22;22418;51.210;6.976;2023-08-24T12:56:49;25.40;99.90
36384;DHT22;22418;51.210;6.976;2023-08-24T12:59:19;25.40;99.90
36384;DHT22;22418;51.210;6.976;2023-08-24T13:01:50;25.40;99.90
36384;DHT22;22418;51.210;6.976;2023-08-24T13:04:20;25.60;99.90
36384;DHT22;22418;51.210;6.976;2023-08-24T13:06:51;25.60;99.90
36384;DHT22;22418;51.210;6.976;2023-08-24T13:09:21;25.70;99.90
36384;DHT22;22418;51.210;6.976;2023-08-24T13:11:52;25.80;99.90
36384;DHT22;22418;51.210;6.976;2023-08-24T13:14:22;25.90;99.90
36384;DHT22;22418;51.210;6.976;2023-08-24T13:16:53;25.80;99.90
36384;DHT22;22418;51.210;6.976;2023-08-24T13:19:23;25.80;99.90
36384;DHT22;22418;51.210;6.976;2023-08-24T13:21:54;25.70;99.90
36384;DHT22;22418;51.210;6.976;2023-08-24T13:24:24;25.70;99.90
36384;DHT22;22418;51.210;6.976;2023-08-24T13:26:55;25.60;99.90
36384;DHT22;22418;51.210;6.976;2023-08-24T13:29:25;25.60;99.90
36384;DHT22;22418;51.210;6.976;2023-08-24T13:31:56;25.60;99.90
36384;DHT22;22418;51.210;6.976;2023-08-24T13:34:26;25.50;99.90
36384;DHT22;22418;51.210;6.976;2023-08-24T13:36:57;25.40;99.90
36384;DHT22;22418;51.210;6.976;2023-08-24T13:39:28;25.30;99.90
36384;DHT22;22418;51.210;6.976;2023-08-24T13:41:59;25.20;99.90
36384;DHT22;22418;51.210;6.976;2023-08-24T13:44:30;25.00;99.90
36384;DHT22;22418;51.210;6.976;2023-08-24T13:47:00;25.00;99.90
36384;DHT22;22418;51.210;6.976;2023-08-24T13:49:31;24.90;99.90
36384;DHT22;22418;51.210;6.976;2023-08-24T13:52:01;24.80;99.90
36384;DHT22;22418;51.210;6.976;2023-08-24T13:54:32;24.80;99.90
36384;DHT22;22418;51.210;6.976;2023-08-24T13:57:03;24.70;99.90
36384;DHT22;22418;51.210;6.976;2023-08-24T13:59:33;24.70;99.90
36384;DHT22;22418;51.210;6.976;2023-08-24T14:02:04;24.70;99.90
36384;DHT22;22418;51.210;6.976;2023-08-24T14:04:35;24.70;99.90
36384;DHT22;22418;51.210;6.976;2023-08-24T14:07:05;24.80;99.90
36384;DHT22;22418;51.210;6.976;2023-08-24T14:09:36;24.80;99.90
36384;DHT22;22418;51.210;6.976;2023-08-24T14:12:06;24.90;99.90
36384;DHT22;22418;51.210;6.976;2023-08-24T14:14:37;24.80;99.90
36384;DHT22;22418;51.210;6.976;2023-08-24T14:17:07;24.80;99.90
36384;DHT22;22418;51.210;6.976;2023-08-24T14:19:38;24.80;99.90
36384;DHT22;22418;51.210;6.976;2023-08-24T14:22:08;24.70;99.90
36384;DHT22;22418;51.210;6.976;2023-08-24T14:24:39;24.70;99.90
36384;DHT22;22418;51.210;6.976;2023-08-24T14:27:09;24.70;99.90
36384;DHT22;22418;51.210;6.976;2023-08-24T14:29:40;24.70;99.90
36384;DHT22;22418;51.210;6.976;2023-08-24T14:32:10;24.70;99.90
36384;DHT22;22418;51.210;6.976;2023-08-24T14:34:41;24.70;99.90
36384;DHT22;22418;51.210;6.976;2023-08-24T14:37:12;24.60;99.90
36384;DHT22;22418;51.210;6.976;2023-08-24T14:39:42;24.60;99.90
36384;DHT22;22418;51.210;6.976;2023-08-24T14:42:12;24.50;99.90
36384;DHT22;22418;51.210;6.976;2023-08-24T14:44:43;24.50;99.90
36384;DHT22;22418;51.210;6.976;2023-08-24T14:47:14;24.40;99.90
36384;DHT22;22418;51.210;6.976;2023-08-24T14:49:45;24.40;99.90
36384;DHT22;22418;51.210;6.976;2023-08-24T14:52:15;24.40;99.90
36384;DHT22;22418;51.210;6.976;2023-08-24T14:54:45;24.40;99.90
36384;DHT22;22418;51.210;6.976;2023-08-24T14:57:16;24.40;99.90
36384;DHT22;22418;51.210;6.976;2023-08-24T14:59:46;24.40;99.90
36384;DHT22;22418;51.210;6.976;2023-08-24T15:02:17;24.30;99.90
36384;DHT22;22418;51.210;6.976;2023-08-24T15:04:47;24.20;99.90
36384;DHT22;22418;51.210;6.976;2023-08-24T15:07:18;24.10;99.90
36384;DHT22;22418;51.210;6.976;2023-08-24T15:09:50;24.10;99.90
36384;DHT22;22418;51.210;6.976;2023-08-24T15:12:20;24.10;99.90
36384;DHT22;22418;51.210;6.976;2023-08-24T15:14:58;24.00;99.90
36384;DHT22;22418;51.210;6.976;2023-08-24T15:17:29;23.90;99.90
36384;DHT22;22418;51.210;6.976;2023-08-24T15:20:00;23.70;99.90
36384;DHT22;22418;51.210;6.976;2023-08-24T15:22:31;23.60;99.90
36384;DHT22;22418;51.210;6.976;2023-08-24T15:25:01;23.60;99.90
36384;DHT22;22418;51.210;6.976;2023-08-24T15:27:32;23.60;99.90
36384;DHT22;22418;51.210;6.976;2023-08-24T15:32:37;23.40;99.90
36384;DHT22;22418;51.210;6.976;2023-08-24T15:35:08;23.30;99.90
36384;DHT22;22418;51.210;6.976;2023-08-24T15:37:38;23.20;99.90
36384;DHT22;22418;51.210;6.976;2023-08-24T15:40:10;23.20;99.90
36384;DHT22;22418;51.210;6.976;2023-08-24T15:42:40;23.20;99.90
36384;DHT22;22418;51.210;6.976;2023-08-24T15:45:11;23.00;99.90
36384;DHT22;22418;51.210;6.976;2023-08-24T15:47:42;23.00;99.90
36384;DHT22;22418;51.210;6.976;2023-08-24T15:50:12;23.00;99.90
36384;DHT22;22418;51.210;6.976;2023-08-24T15:52:43;22.90;99.90
36384;DHT22;22418;51.210;6.976;2023-08-24T15:55:14;22.80;99.90
36384;DHT22;22418;51.210;6.976;2023-08-24T15:57:45;22.80;99.90
36384;DHT22;22418;51.210;6.976;2023-08-24T16:00:15;22.70;99.90
36384;DHT22;22418;51.210;6.976;2023-08-24T16:02:46;22.60;99.90
36384;DHT22;22418;51.210;6.976;2023-08-24T16:05:16;22.70;99.90
36384;DHT22;22418;51.210;6.976;2023-08-24T16:07:47;22.60;99.90
36384;DHT22;22418;51.210;6.976;2023-08-24T16:10:18;22.70;99.90
36384;DHT22;22418;51.210;6.976;2023-08-24T16:12:49;22.60;99.90
36384;DHT22;22418;51.210;6.976;2023-08-24T16:15:19;22.60;99.90